Time;durP1;ratioP1;P1;durP2;ratioP2;P2;SDS_P1;SDS_P2;PMS_P1;PMS_P2;Temp;Humidity;BMP_temperature;BMP_pressure;BME280_temperature;BME280_humidity;BME280_pressure;Samples;Min_cycle;Max_cycle;Signal;HPM_P1;HPM_P2
2021/12/07 00:04:32;;;;;;;16.25;9.18;;;;;;;0.10;100.00;100840.25;10540485;28;20044;-55
2021/12/07 00:09:35;;;;;;;14.02;9.50;;;;;;;0.12;100.00;100838.53;10540436;28;20062;-54
2021/12/07 00:14:40;;;;;;;15.02;9.88;;;;;;;0.18;100.00;100841.88;10540201;28;20052;-56
2021/12/07 00:19:42;;;;;;;13.70;9.00;;;;;;;0.38;100.00;100840.72;10540234;28;20130;-56
2021/12/07 00:24:45;;;;;;;12.40;8.38;;;;;;;0.24;100.00;100834.94;10539785;28;20447;-54
2021/12/07 00:29:47;;;;;;;15.38;9.10;;;;;;;0.20;100.00;100854.69;10539866;28;20054;-56
2021/12/07 00:40:13;;;;;;;12.33;8.93;;;;;;;0.35;100.00;100859.66;10540420;28;20051;-54
2021/12/07 00:45:19;;;;;;;16.48;10.70;;;;;;;0.51;100.00;100867.16;10539552;28;20048;-53
2021/12/07 00:50:23;;;;;;;17.13;11.63;;;;;;;0.34;100.00;100870.81;10538250;28;20480;-55
2021/12/07 00:55:31;;;;;;;17.75;12.07;;;;;;;0.40;100.00;100876.75;10539230;28;20417;-53
2021/12/07 01:00:33;;;;;;;21.17;14.30;;;;;;;0.39;100.00;100875.03;10539379;28;20044;-54
2021/12/07 01:05:38;;;;;;;14.77;11.05;;;;;;;0.48;100.00;100880.09;10539312;28;20048;-54
2021/12/07 01:26:45;;;;;;;30.88;19.60;;;;;;;0.33;100.00;100891.44;10538879;28;20056;-57
2021/12/07 01:47:41;;;;;;;36.47;23.20;;;;;;;0.76;100.00;100929.50;10546315;28;20085;-56
2021/12/07 02:03:05;;;;;;;41.10;23.30;;;;;;;0.64;100.00;100956.28;10545264;28;20044;-54
2021/12/07 02:08:08;;;;;;;48.22;24.88;;;;;;;0.72;100.00;100945.88;10545471;28;20097;-54
2021/12/07 02:18:45;;;;;;;31.00;19.15;;;;;;;1.09;100.00;100976.25;10510376;28;20052;-56
2021/12/07 02:23:48;;;;;;;32.08;20.52;;;;;;;1.10;100.00;100972.81;10544523;28;20498;-55
2021/12/07 02:28:52;;;;;;;37.50;19.73;;;;;;;1.03;100.00;100981.53;10544693;28;20044;-56
2021/12/07 02:33:55;;;;;;;34.17;19.70;;;;;;;1.12;100.00;100994.25;10542658;28;20047;-55
2021/12/07 02:38:58;;;;;;;31.13;18.23;;;;;;;1.29;100.00;100997.47;10544459;28;20044;-54
2021/12/07 02:44:01;;;;;;;25.23;15.57;;;;;;;1.25;100.00;101003.53;10543636;28;20051;-53
2021/12/07 02:49:05;;;;;;;28.52;16.52;;;;;;;1.38;100.00;101017.09;10542310;28;20412;-55
2021/12/07 02:54:08;;;;;;;22.90;14.15;;;;;;;1.51;100.00;101025.47;10543464;28;20048;-53
2021/12/07 02:59:11;;;;;;;27.00;15.15;;;;;;;1.55;100.00;101039.19;10543205;28;20055;-55
2021/12/07 03:04:22;;;;;;;26.65;14.90;;;;;;;1.48;100.00;101049.63;10542579;28;20044;-53
2021/12/07 03:30:46;;;;;;;32.85;15.80;;;;;;;1.55;100.00;101080.50;10542551;28;20055;-52
2021/12/07 03:35:49;;;;;;;35.15;18.05;;;;;;;1.49;100.00;101081.41;10541576;28;20052;-56
2021/12/07 03:40:51;;;;;;;29.15;15.82;;;;;;;1.49;100.00;101081.41;10541484;28;20441;-53
2021/12/07 03:45:54;;;;;;;38.00;16.35;;;;;;;1.66;100.00;101092.34;10541460;28;20047;-57
2021/12/07 03:50:56;;;;;;;35.28;14.02;;;;;;;1.79;100.00;101108.47;10540975;28;20052;-55
2021/12/07 03:55:59;;;;;;;38.45;16.10;;;;;;;1.65;100.00;101107.88;10539785;28;20058;-52
2021/12/07 04:01:11;;;;;;;27.23;12.27;;;;;;;1.70;100.00;101115.50;10541086;28;20051;-56
2021/12/07 04:06:14;;;;;;;34.85;13.32;;;;;;;1.71;100.00;101135.31;10540610;28;20047;-54
2021/12/07 04:11:16;;;;;;;33.22;14.98;;;;;;;1.78;100.00;101145.53;10540761;28;20052;-53
2021/12/07 04:16:19;;;;;;;26.63;12.88;;;;;;;1.93;100.00;101146.13;10540374;28;20051;-52
2021/12/07 04:21:21;;;;;;;30.90;12.80;;;;;;;1.96;100.00;101148.69;10539989;28;20048;-56
2021/12/07 04:26:25;;;;;;;33.42;13.93;;;;;;;1.81;100.00;101144.59;10540019;28;20511;-55
2021/12/07 04:31:27;;;;;;;33.70;12.43;;;;;;;1.80;100.00;101153.22;10539683;28;20377;-55
2021/12/07 04:36:30;;;;;;;25.10;13.45;;;;;;;1.71;100.00;101199.84;10539719;28;20056;-55
2021/12/07 04:41:33;;;;;;;26.15;12.73;;;;;;;1.77;100.00;101173.94;10539278;28;20044;-56
2021/12/07 04:46:54;;;;;;;34.60;12.43;;;;;;;1.82;100.00;101182.47;10539945;28;20070;-56
2021/12/07 05:02:55;;;;;;;26.90;10.45;;;;;;;1.94;100.00;101199.50;10525984;28;20044;-55
2021/12/07 05:08:01;;;;;;;32.08;11.02;;;;;;;1.87;100.00;101193.59;10539021;28;20101;-57
2021/12/07 05:24:03;;;;;;;25.40;8.75;;;;;;;1.98;100.00;101214.06;10547303;28;20059;-56
2021/12/07 05:39:39;;;;;;;16.80;7.03;;;;;;;1.82;100.00;101262.50;10546396;28;20052;-55
2021/12/07 05:44:42;;;;;;;23.33;8.60;;;;;;;1.79;100.00;101235.00;10546096;28;20046;-54
2021/12/07 05:49:44;;;;;;;21.00;6.38;;;;;;;1.90;100.00;101257.22;10546081;28;20056;-56
2021/12/07 05:54:47;;;;;;;20.95;6.65;;;;;;;1.74;100.00;101236.78;10527947;28;20101;-55
2021/12/07 05:59:49;;;;;;;21.17;6.97;;;;;;;1.71;100.00;101259.22;10545464;28;20044;-55
2021/12/07 06:04:52;;;;;;;19.00;6.47;;;;;;;1.78;100.00;101269.44;10545457;28;20044;-56
2021/12/07 06:09:54;;;;;;;27.05;7.95;;;;;;;1.69;100.00;101269.56;10545726;28;20052;-56
2021/12/07 06:14:57;;;;;;;20.33;6.00;;;;;;;1.61;100.00;101290.28;10544966;28;20054;-55
2021/12/07 06:19:59;;;;;;;24.02;6.75;;;;;;;1.71;100.00;101303.09;10544656;28;20492;-54
2021/12/07 06:25:02;;;;;;;30.58;7.85;;;;;;;1.81;100.00;101302.94;10544406;28;20040;-55
2021/12/07 06:30:05;;;;;;;22.45;6.75;;;;;;;1.67;100.00;101297.13;10544150;28;20051;-56
2021/12/07 06:35:09;;;;;;;25.75;7.07;;;;;;;1.74;100.00;101301.31;10544295;28;20048;-56
2021/12/07 06:40:12;;;;;;;30.33;7.40;;;;;;;1.82;100.00;101304.66;10542858;28;20044;-56
2021/12/07 06:45:14;;;;;;;16.48;6.03;;;;;;;1.80;100.00;101296.09;10543716;28;20050;-56
2021/12/07 06:50:17;;;;;;;18.58;5.78;;;;;;;1.70;100.00;101280.72;10543699;28;20056;-56
2021/12/07 06:55:20;;;;;;;23.23;6.88;;;;;;;1.46;100.00;101268.13;10543217;28;20395;-57
2021/12/07 07:00:23;;;;;;;19.95;6.68;;;;;;;1.35;100.00;101272.56;10541860;28;20575;-56
2021/12/07 07:05:25;;;;;;;31.60;6.97;;;;;;;1.39;100.00;101284.53;10542821;28;20040;-56
2021/12/07 07:10:27;;;;;;;21.50;6.28;;;;;;;1.45;100.00;101306.84;10543215;28;20052;-58
2021/12/07 07:15:30;;;;;;;23.23;5.93;;;;;;;1.37;100.00;101313.81;10542509;28;20048;-54
2021/12/07 07:20:33;;;;;;;19.50;6.32;;;;;;;1.48;100.00;101319.72;10542718;28;20048;-52
2021/12/07 07:25:35;;;;;;;21.67;6.57;;;;;;;1.45;100.00;101312.00;10542041;28;20431;-55
2021/12/07 07:30:38;;;;;;;25.02;7.75;;;;;;;1.38;100.00;101320.66;10542044;28;20066;-53
2021/12/07 07:35:40;;;;;;;24.70;8.25;;;;;;;1.46;100.00;101327.47;10541777;28;20180;-57
2021/12/07 07:40:45;;;;;;;21.38;8.88;;;;;;;1.43;100.00;101335.25;10540629;28;20123;-54
2021/12/07 07:45:49;;;;;;;23.80;10.23;;;;;;;1.46;100.00;101332.66;10541472;28;20056;-56
2021/12/07 07:50:53;;;;;;;32.97;11.10;;;;;;;1.43;100.00;101329.22;10541276;28;20056;-56
2021/12/07 07:55:55;;;;;;;22.63;11.73;;;;;;;1.40;100.00;101330.13;10540933;28;20396;-54
2021/12/07 08:00:57;;;;;;;23.08;10.13;;;;;;;1.56;100.00;101335.09;10540681;28;20512;-55
2021/12/07 08:06:00;;;;;;;30.02;11.50;;;;;;;1.48;100.00;101345.53;10541395;28;20044;-55
2021/12/07 08:11:03;;;;;;;35.22;12.63;;;;;;;1.60;100.00;101337.63;10540686;28;20056;-56
2021/12/07 08:16:06;;;;;;;33.20;13.07;;;;;;;1.71;100.00;101334.06;10540418;28;20048;-58
2021/12/07 08:21:08;;;;;;;36.05;15.95;;;;;;;1.81;100.00;101333.94;10540644;28;20052;-54
2021/12/07 08:26:13;;;;;;;26.48;13.75;;;;;;;2.00;100.00;101346.59;10540133;28;20044;-57
2021/12/07 08:31:15;;;;;;;32.03;17.38;;;;;;;1.92;100.00;101333.81;10540054;28;20075;-56
2021/12/07 08:36:18;;;;;;;51.03;21.65;;;;;;;1.94;100.00;101344.13;10539687;28;20113;-56
2021/12/07 08:41:21;;;;;;;36.00;18.75;;;;;;;1.96;100.00;101360.44;10538614;28;20044;-55
2021/12/07 08:46:25;;;;;;;39.30;19.77;;;;;;;1.90;100.00;101348.47;10539591;28;20052;-54
2021/12/07 08:51:27;;;;;;;55.35;22.77;;;;;;;1.93;100.00;101353.59;10541269;28;20157;-58
2021/12/07 09:01:51;;;;;;;29.77;17.13;;;;;;;2.11;100.00;101346.50;10547787;28;20405;-55
2021/12/07 09:06:53;;;;;;;40.90;19.75;;;;;;;2.31;100.00;101359.13;10548965;28;20127;-55
2021/12/07 09:11:56;;;;;;;45.42;18.63;;;;;;;2.39;100.00;101360.72;10547305;28;20050;-56
2021/12/07 09:17:05;;;;;;;30.98;16.90;;;;;;;2.31;100.00;101359.97;10547443;28;20055;-57
2021/12/07 09:22:08;;;;;;;44.35;15.70;;;;;;;2.69;100.00;101370.63;10547157;28;20093;-58
2021/12/07 09:27:28;;;;;;;32.33;15.52;;;;;;;3.54;100.00;101377.81;10546844;28;20492;-56
2021/12/07 09:32:30;;;;;;;30.20;13.60;;;;;;;4.07;100.00;101391.44;10546715;28;20048;-57
2021/12/07 09:37:33;;;;;;;36.63;15.43;;;;;;;3.43;100.00;101378.00;10546384;28;20052;-56
2021/12/07 09:42:35;;;;;;;31.25;13.35;;;;;;;2.80;100.00;101363.56;10546261;28;20481;-55
2021/12/07 09:47:38;;;;;;;44.30;15.90;;;;;;;2.99;100.00;101369.28;10545019;28;20086;-57
2021/12/07 09:52:45;;;;;;;28.95;15.43;;;;;;;3.01;100.00;101370.13;10545999;28;20455;-57
2021/12/07 09:57:48;;;;;;;29.65;15.25;;;;;;;2.79;100.00;101362.72;10545863;28;20048;-58
2021/12/07 10:02:51;;;;;;;22.33;10.10;;;;;;;2.76;100.00;101360.16;10544816;28;20048;-55
2021/12/07 10:07:53;;;;;;;29.42;12.45;;;;;;;2.86;100.00;101360.00;10545551;28;20131;-55
2021/12/07 10:12:57;;;;;;;41.58;15.95;;;;;;;3.01;100.00;101357.19;10544762;28;20044;-57
2021/12/07 10:18:17;;;;;;;31.40;14.00;;;;;;;2.83;100.00;101348.00;10544863;28;20409;-57
2021/12/07 10:23:44;;;;;;;26.52;11.20;;;;;;;2.96;100.00;101354.66;10544483;28;20052;-57
2021/12/07 10:28:50;;;;;;;26.92;12.13;;;;;;;3.10;100.00;101346.66;10544670;28;20048;-57
2021/12/07 10:34:15;;;;;;;31.30;10.45;;;;;;;3.23;100.00;101343.84;10544474;28;20121;-53
2021/12/07 10:39:20;;;;;;;22.95;9.05;;;;;;;3.42;100.00;101341.78;10543841;28;20484;-56
2021/12/07 10:44:25;;;;;;;23.05;8.07;;;;;;;3.65;100.00;101339.63;10544314;28;20048;-57
2021/12/07 10:49:41;;;;;;;21.52;8.07;;;;;;;3.72;100.00;101343.78;10543789;28;20054;-51
2021/12/07 10:55:04;;;;;;;13.75;6.63;;;;;;;4.52;100.00;101343.78;10543397;28;20044;-56
2021/12/07 11:00:30;;;;;;;17.50;6.18;;;;;;;5.30;100.00;101348.75;10543432;28;20070;-54
2021/12/07 11:05:38;;;;;;;15.50;5.45;;;;;;;5.43;100.00;101340.63;10575686;27;20052;-57
2021/12/07 11:10:43;;;;;;;15.63;5.43;;;;;;;4.58;100.00;101298.69;10542946;28;20056;-56
2021/12/07 11:15:54;;;;;;;22.10;6.63;;;;;;;3.94;100.00;101288.09;10541522;28;20081;-57
2021/12/07 11:21:09;;;;;;;22.23;7.22;;;;;;;3.95;100.00;101267.34;10542298;28;20051;-56
2021/12/07 11:31:18;;;;;;;13.35;5.55;;;;;;;4.22;100.00;101255.47;10542152;28;20052;-60
2021/12/07 11:36:34;;;;;;;25.08;6.60;;;;;;;4.46;100.00;101268.72;10542421;28;20150;-54
2021/12/07 11:41:36;;;;;;;17.27;5.88;;;;;;;4.52;100.00;101268.56;10541746;28;20044;-58
2021/12/07 11:46:46;;;;;;;14.50;5.65;;;;;;;5.65;100.00;101304.50;10542312;28;20044;-56
2021/12/07 11:51:51;;;;;;;12.60;5.97;;;;;;;4.72;100.00;101265.47;10541698;28;20123;-57
2021/12/07 11:56:54;;;;;;;18.67;5.13;;;;;;;4.84;100.00;101256.53;10540214;28;20047;-57
2021/12/07 12:01:57;;;;;;;17.45;5.72;;;;;;;4.85;100.00;101258.25;10541285;28;20074;-56
2021/12/07 12:07:00;;;;;;;17.13;5.07;;;;;;;4.59;100.00;101235.56;10540725;28;20052;-58
2021/12/07 12:12:22;;;;;;;12.70;4.80;;;;;;;4.64;100.00;101223.34;10541215;28;20048;-59
2021/12/07 12:17:42;;;;;;;18.98;5.13;;;;;;;4.94;100.00;101232.06;10539367;28;20047;-57
2021/12/07 12:22:56;;;;;;;21.40;5.53;;;;;;;5.19;100.00;101223.56;10539385;28;20044;-56
2021/12/07 12:27:58;;;;;;;12.88;3.90;;;;;;;4.84;100.00;101208.09;10539890;28;20048;-57
2021/12/07 12:33:19;;;;;;;15.10;4.82;;;;;;;4.83;100.00;101201.19;10539648;28;20048;-57
2021/12/07 12:38:30;;;;;;;15.48;3.75;;;;;;;4.84;100.00;101200.31;10538443;28;20052;-54
2021/12/07 12:43:49;;;;;;;9.60;3.97;;;;;;;4.79;100.00;101186.63;10540115;28;20052;-58
2021/12/07 12:48:54;;;;;;;16.60;4.53;;;;;;;4.67;100.00;101176.56;10539738;28;20048;-57
2021/12/07 12:53:59;;;;;;;14.88;4.72;;;;;;;4.78;100.00;101177.13;10539907;28;20048;-57
2021/12/07 12:59:05;;;;;;;13.05;4.72;;;;;;;4.71;100.00;101167.81;10539529;28;20055;-56
2021/12/07 13:04:12;;;;;;;13.32;4.65;;;;;;;4.86;100.00;101160.50;10539084;28;20052;-57
2021/12/07 13:09:25;;;;;;;11.80;4.68;;;;;;;4.84;100.00;101135.47;10539534;28;20051;-56
2021/12/07 13:14:31;;;;;;;14.80;5.50;;;;;;;4.76;100.00;101126.19;10537939;28;20496;-55
2021/12/07 13:20:12;;;;;;;12.25;4.80;;;;;;;4.80;100.00;101113.06;10537767;28;20046;-57
2021/12/07 13:25:28;;;;;;;11.00;4.22;;;;;;;4.88;100.00;101102.47;10539109;28;20055;-53
2021/12/07 13:30:45;;;;;;;18.98;5.13;;;;;;;4.62;100.00;101074.69;10538934;28;20047;-54
2021/12/07 13:35:50;;;;;;;15.88;4.57;;;;;;;4.43;100.00;101059.63;10538848;28;20052;-54
2021/12/07 13:41:13;;;;;;;14.95;5.32;;;;;;;4.42;100.00;101041.53;10544067;28;20422;-55
2021/12/07 13:46:24;;;;;;;15.25;4.85;;;;;;;4.23;100.00;101029.06;10546260;28;20048;-57
2021/12/07 13:51:28;;;;;;;15.55;5.38;;;;;;;4.15;100.00;101043.13;10546096;28;20052;-56
2021/12/07 13:56:40;;;;;;;15.15;4.65;;;;;;;4.24;100.00;101040.31;10546201;28;20041;-58
2021/12/07 14:01:48;;;;;;;;;;;;;;;4.05;100.00;101025.25;10545761;28;20055;-57
2021/12/07 14:06:51;;;;;;;13.55;4.05;;;;;;;3.86;100.00;100977.41;10545418;28;20371;-54
2021/12/07 14:11:57;;;;;;;16.83;5.03;;;;;;;4.05;100.00;100990.69;10545185;28;20048;-55
2021/12/07 14:17:00;;;;;;;15.55;5.47;;;;;;;3.98;100.00;100984.84;10545788;28;20040;-58
2021/12/07 14:22:03;;;;;;;13.07;4.78;;;;;;;3.88;100.00;100980.78;10544639;28;20047;-54
2021/12/07 14:27:06;;;;;;;14.48;3.75;;;;;;;3.84;100.00;100964.50;10545480;28;20040;-57
2021/12/07 14:32:09;;;;;;;20.40;4.40;;;;;;;3.57;100.00;100958.28;10543178;28;20056;-54
2021/12/07 14:37:13;;;;;;;10.10;3.80;;;;;;;3.55;100.00;100954.91;10543892;28;20056;-58
2021/12/07 14:42:18;;;;;;;7.90;4.38;;;;;;;3.37;100.00;100935.50;10543900;28;20054;-58
2021/12/07 14:47:20;;;;;;;16.65;4.65;;;;;;;3.41;100.00;100925.91;10544094;28;20040;-55
2021/12/07 14:52:29;;;;;;;15.93;4.40;;;;;;;3.32;100.00;100920.09;10543164;28;20047;-56
2021/12/07 14:57:35;;;;;;;17.83;4.40;;;;;;;3.32;100.00;100929.59;10543427;28;20051;-56
2021/12/07 15:02:41;;;;;;;15.80;4.78;;;;;;;3.25;100.00;100931.50;10543037;28;20044;-55
2021/12/07 15:07:44;;;;;;;17.27;4.57;;;;;;;3.19;100.00;100907.50;10543309;28;20052;-54
2021/12/07 15:12:49;;;;;;;13.90;3.55;;;;;;;3.06;100.00;100905.22;10542534;28;20044;-53
2021/12/07 15:17:51;;;;;;;13.32;4.15;;;;;;;2.89;100.00;100884.94;10542980;28;20067;-54
2021/12/07 15:22:54;;;;;;;12.45;3.40;;;;;;;2.88;100.00;100882.41;10542256;28;20051;-56
2021/12/07 15:27:56;;;;;;;10.07;3.13;;;;;;;2.72;100.00;100863.78;10542606;28;20048;-54
2021/12/07 15:33:00;;;;;;;11.48;3.50;;;;;;;2.72;100.00;100858.63;10542191;28;20067;-57
2021/12/07 15:38:03;;;;;;;12.27;3.38;;;;;;;2.68;100.00;100851.84;10540396;28;20389;-56
2021/12/07 15:43:05;;;;;;;9.40;4.13;;;;;;;2.90;100.00;100840.06;10541660;28;20044;-57
2021/12/07 15:48:07;;;;;;;13.50;3.45;;;;;;;2.79;100.00;100832.59;10540368;28;20403;-56
2021/12/07 15:53:14;;;;;;;10.23;2.80;;;;;;;2.71;100.00;100837.09;10541371;28;20046;-56
2021/12/07 15:58:17;;;;;;;15.68;3.58;;;;;;;2.89;100.00;100835.81;10540811;28;20051;-55
2021/12/07 16:03:26;;;;;;;14.20;3.30;;;;;;;2.73;100.00;100816.38;10540358;28;20044;-53
2021/12/07 16:08:37;;;;;;;11.52;3.00;;;;;;;2.71;100.00;100790.56;10540866;28;20132;-54
2021/12/07 16:13:44;;;;;;;6.90;3.28;;;;;;;2.90;100.00;100788.34;10540580;28;20486;-53
2021/12/07 16:18:46;;;;;;;8.90;2.72;;;;;;;2.74;100.00;100767.22;10540259;28;20048;-57
2021/12/07 16:23:55;;;;;;;10.40;3.30;;;;;;;2.78;100.00;100757.66;10540881;28;20271;-56
2021/12/07 16:28:59;;;;;;;12.20;3.05;;;;;;;2.78;100.00;100734.38;10540430;28;20051;-57
2021/12/07 16:34:02;;;;;;;5.60;3.28;;;;;;;2.71;100.00;100701.81;10539985;28;20043;-56
2021/12/07 16:39:05;;;;;;;13.20;3.25;;;;;;;2.75;100.00;100696.50;10539915;28;20054;-59
2021/12/07 16:44:08;;;;;;;5.13;2.30;;;;;;;2.78;100.00;100687.84;10539622;28;20105;-59
2021/12/07 16:49:10;;;;;;;12.68;2.85;;;;;;;2.75;100.00;100695.66;10539640;28;20480;-58
2021/12/07 16:54:13;;;;;;;8.00;2.85;;;;;;;2.75;100.00;100662.06;10539382;28;20403;-57
2021/12/07 16:59:15;;;;;;;8.60;2.28;;;;;;;2.73;100.00;100644.00;10539556;28;20048;-56
2021/12/07 17:04:17;;;;;;;5.80;2.58;;;;;;;2.75;100.00;100626.69;10539351;28;20127;-56
2021/12/07 17:09:20;;;;;;;8.80;2.17;;;;;;;2.80;100.00;100605.88;10539279;28;20052;-57
2021/12/07 17:14:24;;;;;;;15.50;4.20;;;;;;;2.76;100.00;100579.28;10544222;28;20134;-56
2021/12/07 17:19:26;;;;;;;11.55;3.13;;;;;;;2.73;100.00;100569.03;10547351;28;20396;-57
2021/12/07 17:24:28;;;;;;;9.07;3.03;;;;;;;2.63;100.00;100544.31;10547040;28;20534;-58
2021/12/07 17:29:31;;;;;;;4.40;2.33;;;;;;;2.64;100.00;100519.31;10547107;28;20400;-56
2021/12/07 17:34:36;;;;;;;5.75;2.40;;;;;;;2.60;100.00;100487.53;10546746;28;20047;-56
2021/12/07 17:39:39;;;;;;;6.35;2.58;;;;;;;2.69;100.00;100499.34;10547029;28;20052;-56
2021/12/07 17:44:42;;;;;;;6.57;2.70;;;;;;;2.70;100.00;100477.78;10546249;28;20047;-58
2021/12/07 17:49:46;;;;;;;6.47;3.22;;;;;;;2.64;100.00;100465.03;10546352;28;20048;-55
2021/12/07 17:54:48;;;;;;;10.43;2.67;;;;;;;2.65;100.00;100446.91;10545980;28;20044;-55
2021/12/07 17:59:51;;;;;;;13.48;2.97;;;;;;;2.63;100.00;100416.84;10546452;28;20051;-56
2021/12/07 18:04:53;;;;;;;15.50;4.72;;;;;;;2.61;100.00;100383.28;10545519;28;20044;-55
2021/12/07 18:09:55;;;;;;;11.02;3.22;;;;;;;2.68;100.00;100365.84;10545695;28;20407;-56
2021/12/07 18:14:58;;;;;;;9.95;3.45;;;;;;;2.67;100.00;100344.28;10545148;28;20404;-57
2021/12/07 18:20:00;;;;;;;6.35;3.15;;;;;;;2.74;100.00;100350.97;10544975;28;20076;-56
2021/12/07 18:25:04;;;;;;;8.70;2.85;;;;;;;2.75;100.00;100362.16;10544135;28;20510;-58
2021/12/07 18:30:12;;;;;;;6.40;3.00;;;;;;;2.82;100.00;100336.94;10544753;28;20048;-59
2021/12/07 18:35:14;;;;;;;10.45;3.25;;;;;;;2.79;100.00;100328.41;10543452;28;20059;-59
2021/12/07 18:40:17;;;;;;;7.68;3.22;;;;;;;2.72;100.00;100290.72;10544441;28;20040;-54
2021/12/07 18:45:19;;;;;;;11.00;3.25;;;;;;;2.85;100.00;100303.25;10543838;28;20059;-58
2021/12/07 18:50:22;;;;;;;12.45;2.83;;;;;;;2.79;100.00;100270.66;10543789;28;20376;-57
2021/12/07 18:55:27;;;;;;;10.10;3.00;;;;;;;2.84;100.00;100281.72;10543667;28;20066;-56
2021/12/07 19:00:30;;;;;;;9.65;3.47;;;;;;;2.82;100.00;100259.38;10543608;28;20052;-58
2021/12/07 19:05:32;;;;;;;6.97;2.85;;;;;;;2.73;100.00;100232.94;10543298;28;20048;-57
2021/12/07 19:10:36;;;;;;;9.05;2.45;;;;;;;2.85;100.00;100217.91;10543820;28;20048;-56
2021/12/07 19:15:39;;;;;;;9.25;2.90;;;;;;;3.02;100.00;100194.03;10543159;28;20040;-58
2021/12/07 19:20:42;;;;;;;7.35;3.58;;;;;;;3.01;100.00;100188.03;10542541;28;20048;-54
2021/12/07 19:25:45;;;;;;;11.48;3.20;;;;;;;3.01;100.00;100158.72;10542719;28;20056;-58
2021/12/07 19:30:48;;;;;;;11.95;3.35;;;;;;;3.09;100.00;100156.72;10541929;28;20055;-57
2021/12/07 19:35:50;;;;;;;10.05;3.33;;;;;;;3.11;100.00;100122.13;10540483;28;20048;-56
2021/12/07 19:40:54;;;;;;;7.80;3.72;;;;;;;3.22;100.00;100123.47;10540438;28;20051;-57
2021/12/07 19:45:58;;;;;;;14.07;4.32;;;;;;;3.28;100.00;100118.06;10542364;28;20051;-59
2021/12/07 19:51:02;;;;;;;12.15;3.22;;;;;;;3.35;99.39;100096.25;10541328;28;20139;-55
2021/12/07 19:56:11;;;;;;;13.85;3.80;;;;;;;3.42;98.79;100079.56;10541388;28;20040;-54
2021/12/07 20:01:14;;;;;;;6.53;3.50;;;;;;;3.37;99.22;100057.38;10541175;28;20040;-55
2021/12/07 20:06:18;;;;;;;7.05;3.40;;;;;;;3.38;99.45;100036.59;10541034;28;20047;-56
2021/12/07 20:11:22;;;;;;;9.57;3.53;;;;;;;3.49;98.62;100033.56;10540496;28;20483;-57
2021/12/07 20:16:25;;;;;;;12.27;3.33;;;;;;;3.43;98.51;100016.56;10540561;28;20044;-56
2021/12/07 20:21:27;;;;;;;7.85;4.57;;;;;;;3.51;97.59;100005.88;10540384;28;20043;-56
2021/12/07 20:26:29;;;;;;;6.60;3.17;;;;;;;3.53;98.49;100010.09;10540600;28;20044;-59
2021/12/07 20:31:47;;;;;;;14.10;3.53;;;;;;;3.62;97.97;100029.59;10540636;28;20052;-58
2021/12/07 20:36:49;;;;;;;6.30;3.45;;;;;;;3.63;96.82;100022.66;10540048;28;20052;-57
2021/12/07 20:41:52;;;;;;;10.32;3.80;;;;;;;3.68;97.31;100018.13;10539658;28;20051;-58
2021/12/07 20:46:55;;;;;;;10.18;3.45;;;;;;;3.61;98.41;100011.53;10539829;28;20044;-59
2021/12/07 20:52:02;;;;;;;10.40;3.75;;;;;;;3.60;97.91;100009.81;10540183;28;20070;-56
2021/12/07 20:57:07;;;;;;;4.85;3.40;;;;;;;3.68;99.35;100025.91;10540222;28;20055;-57
2021/12/07 21:02:11;;;;;;;6.25;3.58;;;;;;;3.71;98.24;100023.19;10539193;28;20056;-56
2021/12/07 21:07:13;;;;;;;9.77;4.15;;;;;;;3.73;98.63;100021.38;10539292;28;20040;-57
2021/12/07 21:12:16;;;;;;;9.32;4.97;;;;;;;3.69;100.00;99993.94;10539174;28;20087;-58
2021/12/07 21:17:19;;;;;;;11.35;5.53;;;;;;;3.64;100.00;99976.00;10539771;28;20044;-58
2021/12/07 21:22:21;;;;;;;9.98;3.67;;;;;;;3.52;100.00;99951.47;10538866;28;20059;-58
2021/12/07 21:27:24;;;;;;;6.43;4.40;;;;;;;3.42;100.00;99903.59;10539059;28;20048;-57
2021/12/07 21:32:26;;;;;;;7.38;4.55;;;;;;;3.41;100.00;99877.78;10538981;28;20066;-58
2021/12/07 21:37:29;;;;;;;8.85;3.65;;;;;;;3.45;100.00;99871.56;10538905;28;20056;-58
2021/12/07 21:42:32;;;;;;;11.00;3.67;;;;;;;3.37;100.00;99834.84;10538287;28;20048;-57
2021/12/07 21:47:35;;;;;;;8.35;3.13;;;;;;;3.34;100.00;99823.69;10538858;28;20044;-58
2021/12/07 21:52:38;;;;;;;5.72;3.53;;;;;;;3.29;100.00;99814.44;10538341;28;20055;-56
2021/12/07 21:57:41;;;;;;;16.15;3.60;;;;;;;3.33;100.00;99795.31;10538650;28;20403;-54
2021/12/07 22:02:44;;;;;;;10.50;3.97;;;;;;;3.25;100.00;99780.13;10544307;28;20052;-55
2021/12/07 22:07:48;;;;;;;7.25;4.65;;;;;;;3.23;100.00;99757.78;10546270;28;20044;-54
2021/12/07 22:12:51;;;;;;;7.68;3.40;;;;;;;3.15;100.00;99740.88;10545295;28;20052;-52
2021/12/07 22:17:54;;;;;;;6.43;3.72;;;;;;;3.20;100.00;99734.66;10545111;28;20392;-56
2021/12/07 22:22:56;;;;;;;6.47;3.40;;;;;;;3.27;100.00;99712.78;10543611;28;20044;-56
2021/12/07 22:27:59;;;;;;;9.38;3.78;;;;;;;3.33;100.00;99694.41;10544795;28;20589;-57
2021/12/07 22:33:01;;;;;;;10.35;3.42;;;;;;;3.28;100.00;99688.59;10544859;28;20054;-58
2021/12/07 22:38:04;;;;;;;12.00;3.88;;;;;;;3.31;100.00;99691.91;10544287;28;20063;-59
2021/12/07 22:43:08;;;;;;;10.98;3.58;;;;;;;3.27;100.00;99695.50;10543766;28;20044;-54
2021/12/07 22:48:11;;;;;;;9.05;3.35;;;;;;;3.37;100.00;99713.22;10544394;28;20044;-58
2021/12/07 22:53:15;;;;;;;6.90;3.38;;;;;;;3.26;100.00;99709.38;10542198;28;20044;-58
2021/12/07 22:58:17;;;;;;;10.57;3.17;;;;;;;3.28;100.00;99709.31;10543604;28;20051;-58
2021/12/07 23:03:22;;;;;;;8.02;3.22;;;;;;;3.23;100.00;99696.56;10543147;28;20392;-57
2021/12/07 23:08:25;;;;;;;8.43;3.90;;;;;;;3.24;100.00;99700.00;10543223;28;20040;-54
2021/12/07 23:13:27;;;;;;;11.93;3.70;;;;;;;3.29;100.00;99698.03;10542536;28;20514;-58
2021/12/07 23:18:31;;;;;;;5.80;3.58;;;;;;;3.27;100.00;99707.63;10542792;28;20052;-58
2021/12/07 23:23:34;;;;;;;8.93;4.15;;;;;;;3.22;100.00;99689.69;10542486;28;20048;-59
2021/12/07 23:28:40;;;;;;;8.43;4.05;;;;;;;3.26;100.00;99687.81;10542235;28;20051;-59
2021/12/07 23:33:45;;;;;;;9.95;4.15;;;;;;;3.19;100.00;99668.31;10541932;28;20048;-55
2021/12/07 23:38:51;;;;;;;4.90;3.60;;;;;;;3.27;100.00;99674.81;10541588;28;20051;-56
2021/12/07 23:43:55;;;;;;;7.78;2.72;;;;;;;3.28;100.00;99657.56;10541610;28;20395;-56
2021/12/07 23:48:57;;;;;;;12.48;4.22;;;;;;;3.17;100.00;99643.34;10541603;28;20397;-57
2021/12/07 23:54:01;;;;;;;7.60;4.07;;;;;;;3.27;100.00;99651.53;10541191;28;20048;-57
2021/12/07 23:59:04;;;;;;;14.77;4.70;;;;;;;3.20;100.00;99639.78;10541436;28;20073;-55
